Time;durP1;ratioP1;P1;durP2;ratioP2;P2;SDS_P1;SDS_P2;PMS_P1;PMS_P2;Temp;Humidity;BMP_temperature;BMP_pressure;BME280_temperature;BME280_humidity;BME280_pressure;Samples;Min_cycle;Max_cycle;Signal;HPM_P1;HPM_P2
2023/10/01 00:00:36;;;;;;;4.72;3.10;;;;;;;;;;5037308;28;20084;-87
2023/10/01 00:03:06;;;;;;;6.18;3.45;;;;;;;;;;5038262;28;20061;-88
2023/10/01 00:05:33;;;;;;;6.43;3.00;;;;;;;;;;5037916;28;20056;-85
2023/10/01 00:08:01;;;;;;;8.02;2.97;;;;;;;;;;5039870;28;20065;-87
2023/10/01 00:10:28;;;;;;;6.53;2.95;;;;;;;;;;5040364;28;20103;-87
2023/10/01 00:12:57;;;;;;;7.60;2.78;;;;;;;;;;5040068;28;20100;-88
2023/10/01 00:15:33;;;;;;;4.25;2.70;;;;;;;;;;5040223;28;20049;-88
2023/10/01 00:18:00;;;;;;;8.75;2.78;;;;;;;;;;5037115;28;20099;-88
2023/10/01 00:24:04;;;;;;;5.95;2.63;;;;;;;;;;5037111;28;20065;-87
2023/10/01 00:26:31;;;;;;;4.00;2.80;;;;;;;;;;5032573;28;20100;-87
2023/10/01 00:29:04;;;;;;;5.15;2.60;;;;;;;;;;5017055;28;20105;-88
2023/10/01 00:31:32;;;;;;;4.78;2.38;;;;;;;;;;5016941;28;20104;-87
2023/10/01 00:33:59;;;;;;;4.90;2.35;;;;;;;;;;5021764;28;20057;-88
2023/10/01 00:36:28;;;;;;;6.05;2.40;;;;;;;;;;5033119;28;20054;-88
2023/10/01 00:38:56;;;;;;;8.35;2.80;;;;;;;;;;5033543;28;20081;-87
2023/10/01 00:41:23;;;;;;;3.03;2.30;;;;;;;;;;5032686;28;20049;-88
2023/10/01 00:43:51;;;;;;;5.93;2.33;;;;;;;;;;5032649;28;20057;-87
2023/10/01 00:46:19;;;;;;;8.45;2.63;;;;;;;;;;5025575;28;20049;-87
2023/10/01 00:48:47;;;;;;;6.97;2.90;;;;;;;;;;5033493;28;20095;-88
2023/10/01 00:51:15;;;;;;;5.35;2.63;;;;;;;;;;5030059;28;20060;-87
2023/10/01 00:53:43;;;;;;;4.05;2.55;;;;;;;;;;5021579;28;20534;-88
2023/10/01 00:56:10;;;;;;;3.45;1.90;;;;;;;;;;5023939;28;20049;-87
2023/10/01 00:58:38;;;;;;;5.70;2.58;;;;;;;;;;5029524;28;20046;-87
2023/10/01 01:01:08;;;;;;;9.75;2.75;;;;;;;;;;5031053;28;20050;-89
2023/10/01 01:03:36;;;;;;;4.60;2.40;;;;;;;;;;5033219;28;20049;-87
2023/10/01 01:06:13;;;;;;;4.78;2.55;;;;;;;;;;5029275;28;20049;-87
2023/10/01 01:08:46;;;;;;;3.90;2.30;;;;;;;;;;5014550;28;20061;-88
2023/10/01 01:11:18;;;;;;;5.93;2.58;;;;;;;;;;5014793;28;20050;-88
2023/10/01 01:13:51;;;;;;;5.30;2.50;;;;;;;;;;5037370;28;20144;-88
2023/10/01 01:16:21;;;;;;;5.75;2.33;;;;;;;;;;5034238;28;20046;-88
2023/10/01 01:18:51;;;;;;;7.05;2.70;;;;;;;;;;5017807;28;20132;-88
2023/10/01 01:21:20;;;;;;;4.40;2.58;;;;;;;;;;5029012;28;20056;-88
2023/10/01 01:23:50;;;;;;;4.35;2.40;;;;;;;;;;5033222;28;20056;-88
2023/10/01 01:26:21;;;;;;;6.40;2.63;;;;;;;;;;5038743;28;20073;-88
2023/10/01 01:28:49;;;;;;;8.32;3.33;;;;;;;;;;5035622;28;20041;-87
2023/10/01 01:31:16;;;;;;;3.75;2.58;;;;;;;;;;5020236;28;20085;-88
2023/10/01 01:33:53;;;;;;;4.50;2.83;;;;;;;;;;5033734;28;20052;-86
2023/10/01 01:36:21;;;;;;;5.75;2.78;;;;;;;;;;5057497;28;20050;-86
2023/10/01 01:39:09;;;;;;;5.03;3.10;;;;;;;;;;5042778;28;20052;-88
2023/10/01 01:41:47;;;;;;;7.18;2.80;;;;;;;;;;5015602;28;20042;-86
2023/10/01 01:44:15;;;;;;;8.43;3.38;;;;;;;;;;5015669;28;20104;-87
2023/10/01 01:46:48;;;;;;;7.22;3.13;;;;;;;;;;5019133;28;20125;-87
2023/10/01 01:49:18;;;;;;;5.47;2.78;;;;;;;;;;5031020;28;20132;-87
2023/10/01 01:51:57;;;;;;;4.65;2.35;;;;;;;;;;5035403;28;20049;-87
2023/10/01 01:54:26;;;;;;;6.72;2.85;;;;;;;;;;5015853;28;20060;-87
2023/10/01 01:56:55;;;;;;;7.57;2.45;;;;;;;;;;5021383;28;20349;-87
2023/10/01 01:59:24;;;;;;;3.35;2.35;;;;;;;;;;5031318;28;20053;-88
2023/10/01 02:01:52;;;;;;;5.13;2.45;;;;;;;;;;5028894;28;20062;-87
2023/10/01 02:04:22;;;;;;;6.47;2.45;;;;;;;;;;5035069;28;20414;-85
2023/10/01 02:06:54;;;;;;;5.85;2.88;;;;;;;;;;5035251;28;20045;-85
2023/10/01 02:09:24;;;;;;;9.15;2.70;;;;;;;;;;5035111;28;20487;-88
2023/10/01 02:11:55;;;;;;;4.00;2.40;;;;;;;;;;5031447;28;20134;-87
2023/10/01 02:14:34;;;;;;;5.93;2.35;;;;;;;;;;5016535;28;20129;-87
2023/10/01 02:17:15;;;;;;;4.00;2.35;;;;;;;;;;5024978;28;20061;-86
2023/10/01 02:19:46;;;;;;;4.80;2.50;;;;;;;;;;5031885;28;20075;-87
2023/10/01 02:22:16;;;;;;;6.28;2.58;;;;;;;;;;5031505;28;20129;-87
2023/10/01 02:27:11;;;;;;;7.07;2.53;;;;;;;;;;5024621;28;20050;-87
2023/10/01 02:32:25;;;;;;;3.45;2.83;;;;;;;;;;5020834;28;20115;-87
2023/10/01 02:34:52;;;;;;;5.57;2.67;;;;;;;;;;5034308;28;20046;-87
2023/10/01 02:37:29;;;;;;;6.45;3.30;;;;;;;;;;5016145;28;20104;-87
2023/10/01 02:39:59;;;;;;;4.70;3.20;;;;;;;;;;5033947;28;20077;-87
2023/10/01 02:42:30;;;;;;;4.18;2.70;;;;;;;;;;5034485;28;20060;-87
2023/10/01 02:44:58;;;;;;;5.18;2.70;;;;;;;;;;5033884;28;20053;-87
2023/10/01 02:47:26;;;;;;;7.38;2.63;;;;;;;;;;5030825;28;20042;-86
2023/10/01 02:49:59;;;;;;;7.55;2.70;;;;;;;;;;5023527;28;20108;-86
2023/10/01 02:52:36;;;;;;;6.28;2.28;;;;;;;;;;5026729;28;20414;-88
2023/10/01 02:55:17;;;;;;;5.70;2.70;;;;;;;;;;5034236;28;20458;-87
2023/10/01 02:57:50;;;;;;;3.67;2.05;;;;;;;;;;5030825;28;20046;-88
2023/10/01 03:02:53;;;;;;;6.35;2.47;;;;;;;;;;5023294;28;20099;-86
2023/10/01 03:05:28;;;;;;;5.00;2.50;;;;;;;;;;5028026;28;20057;-88
2023/10/01 03:08:03;;;;;;;5.88;2.42;;;;;;;;;;5032650;28;20045;-87
2023/10/01 03:10:31;;;;;;;7.90;2.60;;;;;;;;;;5030732;28;20045;-88
2023/10/01 03:13:00;;;;;;;5.13;2.70;;;;;;;;;;5032691;28;20414;-88
2023/10/01 03:15:29;;;;;;;3.60;2.35;;;;;;;;;;5030523;28;20531;-88
2023/10/01 03:18:05;;;;;;;5.07;2.40;;;;;;;;;;5031792;28;20104;-87
2023/10/01 03:23:06;;;;;;;5.05;2.03;;;;;;;;;;5017023;28;20060;-87
2023/10/01 03:25:40;;;;;;;5.03;2.55;;;;;;;;;;5033997;28;20060;-85
2023/10/01 03:28:12;;;;;;;6.47;2.42;;;;;;;;;;5033099;28;20046;-88
2023/10/01 03:30:46;;;;;;;5.38;2.85;;;;;;;;;;5029838;28;20519;-87
2023/10/01 03:33:16;;;;;;;4.38;2.20;;;;;;;;;;5038950;28;20054;-87
2023/10/01 03:35:47;;;;;;;3.85;2.22;;;;;;;;;;5031982;28;20061;-86
2023/10/01 03:38:15;;;;;;;4.45;3.05;;;;;;;;;;5017506;28;20046;-86
2023/10/01 03:41:02;;;;;;;3.80;2.47;;;;;;;;;;5021024;28;20046;-86
2023/10/01 03:43:34;;;;;;;8.35;2.72;;;;;;;;;;5032420;28;20050;-85
2023/10/01 03:46:07;;;;;;;6.28;2.85;;;;;;;;;;5038287;28;20077;-86
2023/10/01 03:48:57;;;;;;;3.22;2.25;;;;;;;;;;5039457;28;20049;-86
2023/10/01 03:51:28;;;;;;;6.95;2.83;;;;;;;;;;5024714;28;20053;-86
2023/10/01 03:54:03;;;;;;;6.10;2.88;;;;;;;;;;5039782;28;20050;-86
2023/10/01 03:56:31;;;;;;;5.40;3.00;;;;;;;;;;5038344;28;20050;-86
2023/10/01 03:58:58;;;;;;;8.02;3.05;;;;;;;;;;5038895;28;20053;-86
2023/10/01 04:01:33;;;;;;;7.22;2.92;;;;;;;;;;5038922;28;20088;-86
2023/10/01 04:04:01;;;;;;;6.13;2.70;;;;;;;;;;5037658;28;20057;-86
2023/10/01 04:06:30;;;;;;;5.47;2.25;;;;;;;;;;5038023;28;20052;-86
2023/10/01 04:09:00;;;;;;;4.78;2.58;;;;;;;;;;5040399;28;20049;-86
2023/10/01 04:11:49;;;;;;;4.15;2.20;;;;;;;;;;5038926;28;20049;-85
2023/10/01 04:14:17;;;;;;;7.22;2.60;;;;;;;;;;5040630;28;20045;-86
2023/10/01 04:16:48;;;;;;;5.20;2.97;;;;;;;;;;5040119;28;20041;-86
2023/10/01 04:19:19;;;;;;;9.85;2.47;;;;;;;;;;5038658;28;20132;-86
2023/10/01 04:21:50;;;;;;;6.03;2.75;;;;;;;;;;5040584;28;20053;-86
2023/10/01 04:24:22;;;;;;;5.13;2.80;;;;;;;;;;5038910;28;20060;-86
2023/10/01 04:26:50;;;;;;;6.30;2.88;;;;;;;;;;5041273;28;20046;-86
2023/10/01 04:29:17;;;;;;;7.22;2.85;;;;;;;;;;5050647;28;20056;-86
2023/10/01 04:31:48;;;;;;;5.75;2.80;;;;;;;;;;5055981;28;20053;-86
2023/10/01 04:34:17;;;;;;;5.65;2.83;;;;;;;;;;5037623;28;20049;-86
2023/10/01 04:36:50;;;;;;;6.82;2.63;;;;;;;;;;5041746;28;20152;-86
2023/10/01 04:39:18;;;;;;;7.07;3.28;;;;;;;;;;5032877;28;20080;-86
2023/10/01 04:41:47;;;;;;;7.63;3.10;;;;;;;;;;5044164;28;20072;-86
2023/10/01 04:44:19;;;;;;;6.82;2.85;;;;;;;;;;5024039;28;20050;-86
2023/10/01 04:46:51;;;;;;;7.38;3.03;;;;;;;;;;5038915;28;20077;-86
2023/10/01 04:49:27;;;;;;;5.80;3.00;;;;;;;;;;5043924;28;20479;-86
2023/10/01 04:52:10;;;;;;;10.57;3.28;;;;;;;;;;5044021;28;20080;-86
2023/10/01 04:54:40;;;;;;;6.72;3.05;;;;;;;;;;5043701;28;20076;-84
2023/10/01 04:57:07;;;;;;;6.45;2.95;;;;;;;;;;5043559;28;20401;-86
2023/10/01 04:59:56;;;;;;;4.88;2.45;;;;;;;;;;5042328;28;20064;-85
2023/10/01 05:02:43;;;;;;;4.80;3.08;;;;;;;;;;5034801;28;20414;-85
2023/10/01 05:05:10;;;;;;;4.90;2.50;;;;;;;;;;5044072;28;20049;-86
2023/10/01 05:07:38;;;;;;;7.45;2.78;;;;;;;;;;5043197;28;20292;-85
2023/10/01 05:10:07;;;;;;;7.03;3.08;;;;;;;;;;5044688;28;20049;-86
2023/10/01 05:12:43;;;;;;;6.13;3.05;;;;;;;;;;5045332;28;20561;-86
2023/10/01 05:15:17;;;;;;;3.78;2.72;;;;;;;;;;5044362;28;20061;-86
2023/10/01 05:17:45;;;;;;;;;;;;;;;;;;5045427;28;20049;-86
2023/10/01 05:20:15;;;;;;;23.60;9.07;;;;;;;;;;5044600;28;19925;-86
2023/10/01 05:22:51;;;;;;;17.92;9.00;;;;;;;;;;5044477;28;20077;-86
2023/10/01 05:25:18;;;;;;;23.40;11.32;;;;;;;;;;5037832;28;20068;-85
2023/10/01 05:27:46;;;;;;;23.77;11.50;;;;;;;;;;5044842;28;20056;-85
2023/10/01 05:33:01;;;;;;;14.85;8.48;;;;;;;;;;5044665;28;20058;-85
2023/10/01 05:35:29;;;;;;;14.80;6.05;;;;;;;;;;5044720;28;20067;-85
2023/10/01 05:37:57;;;;;;;8.55;4.30;;;;;;;;;;5043415;28;20049;-85
2023/10/01 05:40:29;;;;;;;6.40;4.15;;;;;;;;;;5042087;28;20495;-86
2023/10/01 05:43:12;;;;;;;7.43;5.18;;;;;;;;;;5040900;28;20080;-84
2023/10/01 05:45:41;;;;;;;8.68;5.45;;;;;;;;;;5041080;28;20410;-86
2023/10/01 05:48:12;;;;;;;6.70;4.50;;;;;;;;;;5041623;28;20045;-85
2023/10/01 05:50:39;;;;;;;8.15;5.13;;;;;;;;;;5040948;28;20084;-86
2023/10/01 05:53:09;;;;;;;10.73;6.53;;;;;;;;;;5041453;28;20103;-85
2023/10/01 05:55:37;;;;;;;12.50;5.97;;;;;;;;;;5041254;28;20061;-84
2023/10/01 05:58:14;;;;;;;10.38;5.10;;;;;;;;;;5040554;28;20092;-85
2023/10/01 06:00:45;;;;;;;9.30;5.10;;;;;;;;;;5040493;28;20072;-85
2023/10/01 06:03:13;;;;;;;15.90;6.00;;;;;;;;;;4992643;28;1078395;-87
2023/10/01 06:05:57;;;;;;;13.00;5.35;;;;;;;;;;5038892;28;20045;-87
2023/10/01 06:08:25;;;;;;;11.48;5.57;;;;;;;;;;5039009;28;20132;-87
2023/10/01 06:11:04;;;;;;;7.72;4.13;;;;;;;;;;5037831;28;20057;-87
2023/10/01 06:13:56;;;;;;;7.07;4.45;;;;;;;;;;5037983;28;20045;-87
2023/10/01 06:16:41;;;;;;;10.05;4.13;;;;;;;;;;5037228;28;20454;-87
2023/10/01 06:19:11;;;;;;;6.18;3.80;;;;;;;;;;5037639;28;20045;-87
2023/10/01 06:21:49;;;;;;;5.55;3.28;;;;;;;;;;5038459;28;20052;-87
2023/10/01 06:24:27;;;;;;;8.40;3.53;;;;;;;;;;5037911;28;20046;-86
2023/10/01 06:26:56;;;;;;;5.45;2.97;;;;;;;;;;5037571;28;20088;-87
2023/10/01 06:29:23;;;;;;;4.68;3.55;;;;;;;;;;5036503;28;20092;-87
2023/10/01 06:32:04;;;;;;;5.32;2.85;;;;;;;;;;5036983;28;20049;-87
2023/10/01 06:34:32;;;;;;;4.03;2.65;;;;;;;;;;5037513;28;20056;-87
2023/10/01 06:37:01;;;;;;;8.40;2.80;;;;;;;;;;5037605;28;20407;-87
2023/10/01 06:39:35;;;;;;;5.43;3.05;;;;;;;;;;5037475;28;20050;-86
2023/10/01 06:44:55;;;;;;;6.15;2.90;;;;;;;;;;5037319;28;20046;-87
2023/10/01 06:47:25;;;;;;;4.68;3.08;;;;;;;;;;5037869;28;20053;-87
2023/10/01 06:50:07;;;;;;;4.00;2.88;;;;;;;;;;5036854;28;20140;-87
2023/10/01 06:52:35;;;;;;;5.05;3.22;;;;;;;;;;5038148;28;20049;-87
2023/10/01 06:55:30;;;;;;;3.58;3.08;;;;;;;;;;5037368;28;20399;-87
2023/10/01 06:58:00;;;;;;;4.15;2.85;;;;;;;;;;5035724;28;20046;-87
2023/10/01 07:00:41;;;;;;;4.30;2.50;;;;;;;;;;5035543;28;20069;-87
2023/10/01 07:03:35;;;;;;;9.90;2.92;;;;;;;;;;5036612;28;20064;-87
2023/10/01 07:06:04;;;;;;;4.78;2.30;;;;;;;;;;5036121;28;20559;-87
2023/10/01 07:08:37;;;;;;;6.97;2.80;;;;;;;;;;5036729;28;20049;-86
2023/10/01 07:11:11;;;;;;;6.38;2.83;;;;;;;;;;5037293;28;20049;-87
2023/10/01 07:16:51;;;;;;;6.40;2.65;;;;;;;;;;4998536;28;20054;-87
2023/10/01 07:19:21;;;;;;;5.53;3.05;;;;;;;;;;5012007;28;20030;-87
2023/10/01 07:21:56;;;;;;;5.90;2.60;;;;;;;;;;5018865;28;20093;-87
2023/10/01 07:24:42;;;;;;;3.60;2.33;;;;;;;;;;4995779;28;20165;-88
2023/10/01 07:30:45;;;;;;;7.07;2.60;;;;;;;;;;4994412;28;20041;-87
2023/10/01 07:33:20;;;;;;;6.88;2.92;;;;;;;;;;5051127;28;20133;-87
2023/10/01 07:35:58;;;;;;;3.67;2.55;;;;;;;;;;5034467;28;20053;-87
2023/10/01 07:38:52;;;;;;;5.07;2.47;;;;;;;;;;5034284;28;20049;-88
2023/10/01 07:41:44;;;;;;;5.85;2.88;;;;;;;;;;5034259;28;20524;-88
2023/10/01 07:44:18;;;;;;;4.57;2.72;;;;;;;;;;5034120;28;20503;-87
2023/10/01 07:46:46;;;;;;;3.33;2.35;;;;;;;;;;5035063;28;20042;-88
2023/10/01 07:49:18;;;;;;;6.97;2.72;;;;;;;;;;5034172;28;20059;-87
2023/10/01 07:51:48;;;;;;;5.38;2.40;;;;;;;;;;5033472;28;20052;-88
2023/10/01 07:54:22;;;;;;;7.75;2.75;;;;;;;;;;5034020;28;20045;-88
2023/10/01 07:56:49;;;;;;;5.00;2.50;;;;;;;;;;5034757;28;20050;-88
2023/10/01 07:59:33;;;;;;;4.03;2.72;;;;;;;;;;5035287;28;20045;-88
2023/10/01 08:02:21;;;;;;;3.38;2.38;;;;;;;;;;5034198;28;20064;-87
2023/10/01 08:07:17;;;;;;;5.45;2.25;;;;;;;;;;5035071;28;20045;-88
2023/10/01 08:09:51;;;;;;;6.40;2.70;;;;;;;;;;5033633;28;20496;-88
2023/10/01 08:12:28;;;;;;;6.70;3.25;;;;;;;;;;5035039;28;20053;-88
2023/10/01 08:16:23;;;;;;;4.85;2.75;;;;;;;;;;5036653;28;20056;-88
2023/10/01 08:18:39;;;;;;;5.97;2.40;;;;;;;;;;5030648;28;20049;-88
2023/10/01 08:21:30;;;;;;;3.42;2.35;;;;;;;;;;5034830;28;20053;-87
2023/10/01 08:23:57;;;;;;;4.65;2.55;;;;;;;;;;5035924;28;20100;-88
2023/10/01 08:26:43;;;;;;;4.90;2.58;;;;;;;;;;5034547;28;20050;-88
2023/10/01 08:29:14;;;;;;;4.35;2.45;;;;;;;;;;5034560;28;20488;-88
2023/10/01 08:34:23;;;;;;;7.28;2.97;;;;;;;;;;5035674;28;20073;-88
2023/10/01 08:36:55;;;;;;;6.47;3.33;;;;;;;;;;5036200;28;20049;-87
2023/10/01 08:39:35;;;;;;;6.50;3.30;;;;;;;;;;5035518;28;20056;-87
2023/10/01 08:42:08;;;;;;;7.22;3.50;;;;;;;;;;5040472;28;20140;-87
2023/10/01 08:44:47;;;;;;;5.72;4.00;;;;;;;;;;5040948;28;20057;-87
2023/10/01 08:47:35;;;;;;;6.65;3.90;;;;;;;;;;5041304;28;20099;-87
2023/10/01 08:52:56;;;;;;;9.18;3.80;;;;;;;;;;5044608;28;20499;-86
2023/10/01 08:55:24;;;;;;;7.95;3.92;;;;;;;;;;5042204;28;20126;-87
2023/10/01 08:57:53;;;;;;;6.35;3.67;;;;;;;;;;5042859;28;20055;-87
2023/10/01 09:00:24;;;;;;;6.25;3.80;;;;;;;;;;5042269;28;20049;-87
2023/10/01 09:03:10;;;;;;;9.15;5.88;;;;;;;;;;5043912;28;20053;-87
2023/10/01 09:05:46;;;;;;;5.75;3.80;;;;;;;;;;5042422;28;20050;-87
2023/10/01 09:08:32;;;;;;;8.05;4.28;;;;;;;;;;5034042;28;20040;-87
2023/10/01 09:11:10;;;;;;;5.68;3.55;;;;;;;;;;5041251;28;20076;-87
2023/10/01 09:13:48;;;;;;;7.05;3.75;;;;;;;;;;5036954;28;20045;-86
2023/10/01 09:16:30;;;;;;;8.52;4.20;;;;;;;;;;5038221;28;20050;-87
2023/10/01 09:22:08;;;;;;;7.00;4.00;;;;;;;;;;5029547;28;20144;-87
2023/10/01 09:24:38;;;;;;;7.90;4.28;;;;;;;;;;5040708;28;20462;-87
2023/10/01 09:27:14;;;;;;;4.88;3.78;;;;;;;;;;5041010;28;20471;-88
2023/10/01 09:29:57;;;;;;;9.30;4.25;;;;;;;;;;5038697;28;20049;-88
2023/10/01 09:32:50;;;;;;;7.38;4.00;;;;;;;;;;5038511;28;20125;-86
2023/10/01 09:35:30;;;;;;;6.30;4.13;;;;;;;;;;5043803;28;20053;-86
2023/10/01 09:38:10;;;;;;;6.32;3.78;;;;;;;;;;5057545;28;20053;-85
2023/10/01 09:40:42;;;;;;;7.70;4.05;;;;;;;;;;5036328;28;20115;-85
2023/10/01 09:46:08;;;;;;;5.80;3.75;;;;;;;;;;5043889;28;20049;-86
2023/10/01 09:48:36;;;;;;;6.57;3.83;;;;;;;;;;5048201;28;20042;-86
2023/10/01 09:51:14;;;;;;;7.70;4.30;;;;;;;;;;5050827;28;20254;-86
2023/10/01 09:53:51;;;;;;;6.75;4.18;;;;;;;;;;5037041;28;20547;-86
2023/10/01 09:59:26;;;;;;;4.78;3.60;;;;;;;;;;5028603;28;20060;-85
2023/10/01 10:02:02;;;;;;;7.10;4.30;;;;;;;;;;5046825;28;20068;-87
2023/10/01 10:04:34;;;;;;;5.05;3.53;;;;;;;;;;5059467;28;20046;-86
2023/10/01 10:07:02;;;;;;;7.45;4.00;;;;;;;;;;5056162;28;20052;-85
2023/10/01 10:09:31;;;;;;;6.03;3.60;;;;;;;;;;5036879;28;20046;-86
2023/10/01 10:12:02;;;;;;;7.18;4.13;;;;;;;;;;5050715;28;20259;-86
2023/10/01 10:14:33;;;;;;;6.28;3.78;;;;;;;;;;5047600;28;20052;-86
2023/10/01 10:17:01;;;;;;;5.93;3.80;;;;;;;;;;5052126;28;20085;-86
2023/10/01 10:19:31;;;;;;;5.60;3.70;;;;;;;;;;5047665;28;20053;-85
2023/10/01 10:24:35;;;;;;;6.03;3.80;;;;;;;;;;5049136;28;20126;-86
2023/10/01 10:27:07;;;;;;;8.33;4.17;;;;;;;;;;5048673;28;20045;-86
2023/10/01 10:29:47;;;;;;;5.25;3.63;;;;;;;;;;5048558;28;20033;-85
2023/10/01 10:32:14;;;;;;;7.43;3.85;;;;;;;;;;5040103;28;20068;-86
2023/10/01 10:35:03;;;;;;;6.13;3.83;;;;;;;;;;5046308;28;20084;-85
2023/10/01 10:42:46;;;;;;;4.68;3.90;;;;;;;;;;5046021;28;20093;-86
2023/10/01 10:45:24;;;;;;;7.43;3.85;;;;;;;;;;5046900;28;20049;-86
2023/10/01 10:47:58;;;;;;;6.53;4.07;;;;;;;;;;5050636;28;20080;-86
2023/10/01 10:50:45;;;;;;;7.38;4.10;;;;;;;;;;5049382;28;20052;-86
2023/10/01 10:53:16;;;;;;;6.00;3.85;;;;;;;;;;5049326;28;20049;-86
2023/10/01 10:56:08;;;;;;;6.90;4.00;;;;;;;;;;5046780;28;20045;-86
2023/10/01 10:58:46;;;;;;;6.50;3.90;;;;;;;;;;5042723;28;20049;-86
2023/10/01 11:01:20;;;;;;;6.03;3.80;;;;;;;;;;5045921;28;20085;-85
2023/10/01 11:03:48;;;;;;;6.43;3.70;;;;;;;;;;5046093;28;20053;-86
2023/10/01 11:06:23;;;;;;;5.57;3.72;;;;;;;;;;5028996;28;20054;-86
2023/10/01 11:08:54;;;;;;;6.03;4.35;;;;;;;;;;5035310;28;20065;-88
2023/10/01 11:11:27;;;;;;;5.60;3.90;;;;;;;;;;5032238;28;20092;-89
2023/10/01 11:14:15;;;;;;;5.68;4.20;;;;;;;;;;5033307;28;20053;-86
2023/10/01 11:16:45;;;;;;;5.95;3.88;;;;;;;;;;5037321;28;20057;-86
2023/10/01 11:19:16;;;;;;;6.57;3.75;;;;;;;;;;5039678;28;20056;-87
2023/10/01 11:21:46;;;;;;;4.75;3.53;;;;;;;;;;5035196;28;20053;-86
2023/10/01 11:24:14;;;;;;;5.07;3.63;;;;;;;;;;5036964;28;20053;-85
2023/10/01 11:27:00;;;;;;;6.18;3.88;;;;;;;;;;5037377;28;20049;-85
2023/10/01 11:29:30;;;;;;;6.03;3.60;;;;;;;;;;5043176;28;20041;-87
2023/10/01 11:31:57;;;;;;;5.60;3.85;;;;;;;;;;5040573;28;20056;-86
2023/10/01 11:34:30;;;;;;;5.30;3.63;;;;;;;;;;5036020;28;20049;-85
2023/10/01 11:36:58;;;;;;;10.25;3.72;;;;;;;;;;5038743;28;20050;-86
2023/10/01 11:39:38;;;;;;;5.50;3.67;;;;;;;;;;5036992;28;20045;-87
2023/10/01 11:42:19;;;;;;;6.80;3.45;;;;;;;;;;5039612;28;20052;-87
2023/10/01 11:44:52;;;;;;;7.30;4.05;;;;;;;;;;5038014;28;20092;-86
2023/10/01 11:47:33;;;;;;;9.43;4.38;;;;;;;;;;5035948;28;20077;-86
2023/10/01 11:50:07;;;;;;;6.75;3.78;;;;;;;;;;5034417;28;20053;-86
2023/10/01 11:52:36;;;;;;;;;;;;;;;;;;5040990;28;20128;-86
2023/10/01 11:55:18;;;;;;;4.32;3.30;;;;;;;;;;5028480;28;19922;-85
2023/10/01 11:57:54;;;;;;;4.72;3.50;;;;;;;;;;5043282;28;20083;-84
2023/10/01 12:03:12;;;;;;;6.38;4.45;;;;;;;;;;5037888;28;20052;-85
2023/10/01 12:05:47;;;;;;;5.05;3.40;;;;;;;;;;5031244;28;20050;-87
2023/10/01 12:08:18;;;;;;;5.43;4.20;;;;;;;;;;5016917;28;20045;-86
2023/10/01 12:10:51;;;;;;;5.25;3.50;;;;;;;;;;5017081;28;20041;-85
2023/10/01 12:13:21;;;;;;;6.13;3.75;;;;;;;;;;5034819;28;20049;-87
2023/10/01 12:16:07;;;;;;;7.78;4.00;;;;;;;;;;5031476;28;20144;-85
2023/10/01 12:18:46;;;;;;;5.40;3.65;;;;;;;;;;5033617;28;20503;-88
2023/10/01 12:21:25;;;;;;;5.05;3.55;;;;;;;;;;5032572;28;20057;-86
2023/10/01 12:23:53;;;;;;;7.03;3.63;;;;;;;;;;5033319;28;20049;-87
2023/10/01 12:29:12;;;;;;;6.53;4.25;;;;;;;;;;5025741;28;20462;-87
2023/10/01 12:31:48;;;;;;;6.72;4.85;;;;;;;;;;5033150;28;20105;-86
2023/10/01 12:34:17;;;;;;;6.93;3.92;;;;;;;;;;5022192;28;20042;-88
2023/10/01 12:36:45;;;;;;;6.13;4.13;;;;;;;;;;5036367;28;20046;-86
2023/10/01 12:39:34;;;;;;;11.27;4.70;;;;;;;;;;5039681;28;20052;-86
2023/10/01 12:42:04;;;;;;;6.78;4.63;;;;;;;;;;5034293;28;20049;-86
2023/10/01 12:44:36;;;;;;;10.82;4.85;;;;;;;;;;5034964;28;20081;-87
2023/10/01 12:47:07;;;;;;;5.75;4.25;;;;;;;;;;5039938;28;20053;-86
2023/10/01 12:49:38;;;;;;;6.63;4.60;;;;;;;;;;5048162;28;20045;-89
2023/10/01 12:52:08;;;;;;;7.13;4.60;;;;;;;;;;5056877;28;20037;-88
2023/10/01 12:54:36;;;;;;;6.70;4.53;;;;;;;;;;5046276;28;20072;-86
2023/10/01 12:57:09;;;;;;;8.55;5.30;;;;;;;;;;5041609;28;20060;-87
2023/10/01 12:59:42;;;;;;;8.05;5.15;;;;;;;;;;5038985;28;20045;-85
2023/10/01 13:08:07;;;;;;;9.50;6.03;;;;;;;;;;5039817;28;20056;-86
2023/10/01 13:10:37;;;;;;;8.80;6.03;;;;;;;;;;5037268;28;20459;-88
2023/10/01 13:13:07;;;;;;;9.88;6.70;;;;;;;;;;5038158;28;20099;-85
2023/10/01 13:15:37;;;;;;;8.43;6.18;;;;;;;;;;5043077;28;20079;-86
2023/10/01 13:18:18;;;;;;;10.10;5.53;;;;;;;;;;5041733;28;20049;-87
2023/10/01 13:23:25;;;;;;;11.25;5.72;;;;;;;;;;5022635;28;20053;-87
2023/10/01 13:26:05;;;;;;;11.63;6.80;;;;;;;;;;5037348;28;20049;-87
2023/10/01 13:28:46;;;;;;;9.57;5.72;;;;;;;;;;5036347;28;20403;-87
2023/10/01 13:37:11;;;;;;;8.65;5.75;;;;;;;;;;5025732;28;20137;-85
2023/10/01 14:10:58;;;;;;;14.32;8.40;;;;;;;;;;5018330;28;20050;-87
2023/10/01 14:13:35;;;;;;;13.27;8.25;;;;;;;;;;5016841;28;20046;-87
2023/10/01 14:16:17;;;;;;;14.25;8.27;;;;;;;;;;5035092;28;20072;-87
2023/10/01 14:18:54;;;;;;;16.05;9.13;;;;;;;;;;5031450;28;20074;-88
2023/10/01 14:21:27;;;;;;;13.82;8.23;;;;;;;;;;5016354;28;20057;-88
2023/10/01 14:24:24;;;;;;;11.52;7.30;;;;;;;;;;5030753;28;20054;-87
2023/10/01 14:26:52;;;;;;;13.25;8.13;;;;;;;;;;5037381;28;20076;-85
2023/10/01 14:29:33;;;;;;;12.88;7.70;;;;;;;;;;5043471;28;20045;-87
2023/10/01 14:32:10;;;;;;;14.65;8.27;;;;;;;;;;5040690;28;20136;-85
2023/10/01 14:35:14;;;;;;;12.15;7.40;;;;;;;;;;5037169;28;20040;-87
2023/10/01 14:38:06;;;;;;;15.38;8.30;;;;;;;;;;5037885;28;20045;-86
2023/10/01 14:40:56;;;;;;;13.38;7.65;;;;;;;;;;5017009;28;20088;-87
2023/10/01 14:43:26;;;;;;;11.95;7.82;;;;;;;;;;5038439;28;20054;-86
2023/10/01 14:45:53;;;;;;;10.85;7.45;;;;;;;;;;5038112;28;20049;-86
2023/10/01 14:48:22;;;;;;;12.32;7.60;;;;;;;;;;5039295;28;20058;-87
2023/10/01 14:50:56;;;;;;;11.57;7.20;;;;;;;;;;5040469;28;20041;-86
2023/10/01 14:53:54;;;;;;;12.38;7.45;;;;;;;;;;5037568;28;20055;-86
2023/10/01 14:56:22;;;;;;;12.40;7.13;;;;;;;;;;5035957;28;20052;-86
2023/10/01 14:58:51;;;;;;;11.95;6.85;;;;;;;;;;5037289;28;20132;-87
2023/10/01 15:01:19;;;;;;;11.93;7.22;;;;;;;;;;5034096;28;20132;-88
2023/10/01 15:03:58;;;;;;;11.35;6.40;;;;;;;;;;5030536;28;20112;-85
2023/10/01 15:06:25;;;;;;;12.18;7.00;;;;;;;;;;5016794;28;20052;-87
2023/10/01 15:08:58;;;;;;;12.95;7.13;;;;;;;;;;5036237;28;20056;-85
2023/10/01 15:11:27;;;;;;;11.75;6.88;;;;;;;;;;5033537;28;20045;-87
2023/10/01 15:13:55;;;;;;;11.43;7.40;;;;;;;;;;5036699;28;20239;-86
2023/10/01 15:16:30;;;;;;;16.17;7.45;;;;;;;;;;5036771;28;20072;-86
2023/10/01 15:19:18;;;;;;;11.43;6.85;;;;;;;;;;5037600;28;20084;-85
2023/10/01 15:21:48;;;;;;;11.65;7.15;;;;;;;;;;5036188;28;20123;-86
2023/10/01 15:24:16;;;;;;;12.07;6.88;;;;;;;;;;5035995;28;20072;-86
2023/10/01 15:26:50;;;;;;;15.57;7.30;;;;;;;;;;5035609;28;20045;-86
2023/10/01 15:29:17;;;;;;;;;;;;;;;;;;5031939;28;20049;-86
2023/10/01 15:31:51;;;;;;;11.85;7.25;;;;;;;;;;5043386;28;19925;-85
2023/10/01 15:34:19;;;;;;;12.48;6.78;;;;;;;;;;5018957;28;20049;-86
2023/10/01 15:36:48;;;;;;;14.02;7.22;;;;;;;;;;5034000;28;20050;-88
2023/10/01 15:42:19;;;;;;;13.05;7.07;;;;;;;;;;5052475;28;20048;-86
2023/10/01 15:44:59;;;;;;;11.70;6.80;;;;;;;;;;5044893;28;20065;-86
2023/10/01 15:47:46;;;;;;;10.77;6.25;;;;;;;;;;5036984;28;20050;-87
2023/10/01 15:50:16;;;;;;;9.82;6.45;;;;;;;;;;5018628;28;20414;-87
2023/10/01 15:52:47;;;;;;;11.63;6.85;;;;;;;;;;5019264;28;20053;-87
2023/10/01 15:55:32;;;;;;;11.63;6.93;;;;;;;;;;5017333;28;20053;-86
2023/10/01 15:58:01;;;;;;;13.23;7.43;;;;;;;;;;5034049;28;20053;-88
2023/10/01 16:00:32;;;;;;;16.17;7.20;;;;;;;;;;5038100;28;20091;-85
2023/10/01 16:03:05;;;;;;;12.75;7.38;;;;;;;;;;5036855;28;20064;-86
2023/10/01 16:05:39;;;;;;;11.40;7.38;;;;;;;;;;5034187;28;20123;-86
2023/10/01 16:08:29;;;;;;;12.35;7.45;;;;;;;;;;5040323;28;20049;-86
2023/10/01 16:11:01;;;;;;;14.35;8.63;;;;;;;;;;5033032;28;20045;-86
2023/10/01 16:13:34;;;;;;;13.07;7.60;;;;;;;;;;5035321;28;20099;-86
2023/10/01 16:16:07;;;;;;;12.65;6.90;;;;;;;;;;5037788;28;20153;-88
2023/10/01 16:18:35;;;;;;;12.32;7.97;;;;;;;;;;5035392;28;20042;-87
2023/10/01 16:21:04;;;;;;;11.52;7.80;;;;;;;;;;5032605;28;20045;-86
2023/10/01 16:23:36;;;;;;;14.80;8.57;;;;;;;;;;5038014;28;20474;-87
2023/10/01 16:26:07;;;;;;;15.50;8.23;;;;;;;;;;5034784;28;20061;-85
2023/10/01 16:28:35;;;;;;;13.57;7.90;;;;;;;;;;5036128;28;20452;-86
2023/10/01 16:31:04;;;;;;;13.55;7.30;;;;;;;;;;5039380;28;20117;-86
2023/10/01 16:33:43;;;;;;;10.50;6.65;;;;;;;;;;5040207;28;20061;-87
2023/10/01 16:36:10;;;;;;;12.77;7.53;;;;;;;;;;5032503;28;20415;-88
2023/10/01 16:38:46;;;;;;;12.45;7.47;;;;;;;;;;5029273;28;20108;-86
2023/10/01 16:41:16;;;;;;;13.30;7.90;;;;;;;;;;5031014;28;20053;-87
2023/10/01 16:43:52;;;;;;;13.18;8.40;;;;;;;;;;5033770;28;20076;-86
2023/10/01 16:46:19;;;;;;;13.23;7.22;;;;;;;;;;5024702;28;20506;-87
2023/10/01 16:48:47;;;;;;;13.07;7.50;;;;;;;;;;5016721;28;20108;-87
2023/10/01 16:53:51;;;;;;;15.10;8.23;;;;;;;;;;5038503;28;20411;-88
2023/10/01 16:56:21;;;;;;;10.98;7.20;;;;;;;;;;5029033;28;20049;-86
2023/10/01 16:58:53;;;;;;;13.85;7.80;;;;;;;;;;5035963;28;20045;-87
2023/10/01 17:01:25;;;;;;;15.40;7.55;;;;;;;;;;5020988;28;20049;-87
2023/10/01 17:04:04;;;;;;;13.18;7.38;;;;;;;;;;5035637;28;20053;-86
2023/10/01 17:06:33;;;;;;;13.13;7.38;;;;;;;;;;5035977;28;20477;-86